Time;durP1;ratioP1;P1;durP2;ratioP2;P2;SDS_P1;SDS_P2;PMS_P1;PMS_P2;Temp;Humidity;BMP_temperature;BMP_pressure;BME280_temperature;BME280_humidity;BME280_pressure;Samples;Min_cycle;Max_cycle;Signal;HPM_P1;HPM_P2
2021/06/23 00:00:57;;;;;;;2.90;1.10;;;;;;;-148.56;100.00;61375.16;4943940;28;20041;-37
2021/06/23 00:04:21;;;;;;;3.08;1.30;;;;;;;-148.56;100.00;61375.16;4941851;28;20698;-40
2021/06/23 00:07:45;;;;;;;2.45;1.42;;;;;;;-148.56;100.00;61375.16;4945355;28;20039;-41
2021/06/23 00:11:09;;;;;;;5.18;1.35;;;;;;;-148.56;100.00;61375.16;4943763;28;20030;-42
2021/06/23 00:14:34;;;;;;;3.05;1.30;;;;;;;-148.56;100.00;61375.16;4943560;28;20285;-40
2021/06/23 00:17:58;;;;;;;3.45;1.48;;;;;;;-148.56;100.00;61375.16;4942224;28;20326;-39
2021/06/23 00:21:22;;;;;;;3.45;1.27;;;;;;;-148.56;100.00;61375.16;4937421;28;20494;-37
2021/06/23 00:24:45;;;;;;;4.78;1.50;;;;;;;-148.56;100.00;61375.16;4934947;28;20058;-41
2021/06/23 00:28:09;;;;;;;2.88;1.40;;;;;;;-148.56;100.00;61375.16;4945229;28;20034;-41
2021/06/23 00:31:33;;;;;;;1.73;1.08;;;;;;;-148.56;100.00;61375.16;4940178;28;20057;-38
2021/06/23 00:35:01;;;;;;;3.35;1.50;;;;;;;-148.56;100.00;61375.16;4929719;28;21037;-40
2021/06/23 00:38:25;;;;;;;1.50;1.17;;;;;;;-148.56;100.00;61375.16;4937573;28;20125;-34
2021/06/23 00:41:49;;;;;;;3.35;1.40;;;;;;;-148.56;100.00;61375.16;4943587;28;20038;-34
2021/06/23 00:45:14;;;;;;;1.83;1.10;;;;;;;-148.56;100.00;61375.16;4948168;28;20031;-35
2021/06/23 00:48:39;;;;;;;4.65;1.27;;;;;;;-148.56;100.00;61375.16;4957010;28;21633;-31
2021/06/23 00:52:03;;;;;;;2.25;1.00;;;;;;;-148.56;100.00;61375.16;4943252;28;20097;-41
2021/06/23 00:55:27;;;;;;;3.00;1.38;;;;;;;-148.56;100.00;61375.16;4944314;28;20109;-36
2021/06/23 00:58:51;;;;;;;1.65;0.98;;;;;;;-148.56;100.00;61375.16;4945933;28;20634;-38
2021/06/23 01:02:12;;;;;;;2.45;1.10;;;;;;;-148.56;100.00;61375.16;4958217;28;20093;-41
2021/06/23 01:05:38;;;;;;;1.30;0.87;;;;;;;-148.56;100.00;61375.16;4945954;28;20200;-37
2021/06/23 01:09:03;;;;;;;2.50;1.27;;;;;;;-148.56;100.00;61375.16;4942517;28;20216;-41
2021/06/23 01:12:27;;;;;;;3.13;1.30;;;;;;;-148.56;100.00;61375.16;4972946;28;20694;-42
2021/06/23 01:15:52;;;;;;;2.85;1.42;;;;;;;-148.56;100.00;61375.16;4935447;28;20031;-36
2021/06/23 01:19:16;;;;;;;1.70;1.00;;;;;;;-148.56;100.00;61375.16;4955496;28;20118;-38
2021/06/23 01:22:42;;;;;;;2.13;0.90;;;;;;;-148.56;100.00;61375.16;4949795;28;21498;-42
2021/06/23 01:26:07;;;;;;;5.28;1.20;;;;;;;-148.56;100.00;61375.16;4940458;28;20023;-41
2021/06/23 01:29:30;;;;;;;1.80;1.10;;;;;;;-148.56;100.00;61375.16;4943728;28;20125;-40
2021/06/23 01:32:54;;;;;;;1.35;1.15;;;;;;;-148.56;100.00;61375.16;4940730;28;20118;-42
2021/06/23 01:36:18;;;;;;;3.65;1.10;;;;;;;-148.56;100.00;61375.16;4946461;28;20030;-41
2021/06/23 01:39:42;;;;;;;1.92;1.30;;;;;;;-148.56;100.00;61375.16;4956178;28;20133;-37
2021/06/23 01:43:10;;;;;;;1.95;1.10;;;;;;;-148.56;100.00;61375.16;4938083;28;20654;-37
2021/06/23 01:46:34;;;;;;;2.90;1.30;;;;;;;-148.56;100.00;61375.16;4944780;28;20068;-40
2021/06/23 01:50:00;;;;;;;2.55;1.13;;;;;;;-148.56;100.00;61375.16;4961175;28;20434;-34
2021/06/23 01:53:25;;;;;;;3.45;1.17;;;;;;;-148.56;100.00;61375.16;4944522;28;20031;-41
2021/06/23 01:56:49;;;;;;;3.47;1.17;;;;;;;-148.56;100.00;61375.16;4943542;28;20208;-42
2021/06/23 02:00:13;;;;;;;1.98;0.98;;;;;;;-148.56;100.00;61375.16;4946366;28;20029;-41
2021/06/23 02:03:46;;;;;;;3.03;1.40;;;;;;;-148.56;100.00;61375.16;4941992;28;21121;-39
2021/06/23 02:07:47;;;;;;;1.85;1.10;;;;;;;-148.56;100.00;61375.16;4958322;28;20030;-36
2021/06/23 02:11:26;;;;;;;3.35;1.20;;;;;;;-148.56;100.00;61375.16;4946017;28;20034;-40
2021/06/23 02:14:57;;;;;;;1.80;0.95;;;;;;;-148.56;100.00;61375.16;4934342;28;20534;-40
2021/06/23 02:18:21;;;;;;;4.20;1.38;;;;;;;-148.56;100.00;61375.16;4941002;28;20583;-41
2021/06/23 02:21:45;;;;;;;2.95;1.20;;;;;;;-148.56;100.00;61375.16;4982023;28;20138;-40
2021/06/23 02:25:10;;;;;;;4.10;1.33;;;;;;;-148.56;100.00;61375.16;4949798;28;21489;-39
2021/06/23 02:28:34;;;;;;;3.75;1.30;;;;;;;-148.56;100.00;61375.16;4947046;28;20318;-40
2021/06/23 02:31:58;;;;;;;4.55;1.23;;;;;;;-148.56;100.00;61375.16;4942120;28;20978;-36
2021/06/23 02:35:24;;;;;;;4.03;1.15;;;;;;;-148.56;100.00;61375.16;4945294;28;20037;-36
2021/06/23 02:38:49;;;;;;;3.03;1.40;;;;;;;-148.56;100.00;61375.16;4946797;28;20027;-38
2021/06/23 02:42:12;;;;;;;2.20;0.95;;;;;;;-148.56;100.00;61375.16;4968636;28;20108;-42
2021/06/23 02:45:37;;;;;;;5.07;1.08;;;;;;;-148.56;100.00;61375.16;4939328;28;20027;-42
2021/06/23 02:49:01;;;;;;;2.15;1.15;;;;;;;-148.56;100.00;61375.16;4941470;28;20027;-33
2021/06/23 02:52:25;;;;;;;3.72;1.30;;;;;;;-148.56;100.00;61375.16;4950017;28;20102;-37
2021/06/23 02:55:49;;;;;;;2.92;1.10;;;;;;;-148.56;100.00;61375.16;4936762;28;20319;-33
2021/06/23 02:59:12;;;;;;;2.88;1.25;;;;;;;-148.56;100.00;61375.16;4946398;28;20541;-37
2021/06/23 03:02:36;;;;;;;1.80;1.00;;;;;;;-148.56;100.00;61375.16;4939254;28;20058;-37
2021/06/23 03:06:01;;;;;;;2.40;1.10;;;;;;;-148.56;100.00;61375.16;4942515;28;20133;-35
2021/06/23 03:09:24;;;;;;;3.95;1.10;;;;;;;-148.56;100.00;61375.16;4943697;28;20027;-41
2021/06/23 03:12:48;;;;;;;2.08;0.90;;;;;;;-148.56;100.00;61375.16;4947179;28;20053;-40
2021/06/23 03:16:12;;;;;;;1.92;1.23;;;;;;;-148.56;100.00;61375.16;4950213;28;20112;-41
2021/06/23 03:19:36;;;;;;;2.47;1.00;;;;;;;-148.56;100.00;61375.16;4940572;28;20066;-34
2021/06/23 03:22:45;;;;;;;1.60;0.90;;;;;;;30.27;38.23;96097.53;4938529;28;20038;-36
2021/06/23 03:25:11;;;;;;;5.38;1.02;;;;;;;28.85;39.03;96621.03;4944984;28;21043;-41
2021/06/23 03:27:37;;;;;;;1.83;0.80;;;;;;;28.85;39.16;96618.41;4946908;28;20034;-41
2021/06/23 03:30:04;;;;;;;2.50;1.05;;;;;;;28.85;38.84;96610.50;4943470;28;20053;-40
2021/06/23 03:32:29;;;;;;;3.60;0.93;;;;;;;28.86;39.02;96617.44;4943237;28;20054;-32
2021/06/23 03:34:54;;;;;;;0.77;0.70;;;;;;;28.87;39.10;96613.84;4947376;28;20026;-42
2021/06/23 03:37:20;;;;;;;1.13;0.95;;;;;;;28.87;38.97;96613.84;4941371;28;21887;-36
2021/06/23 03:39:45;;;;;;;1.50;0.85;;;;;;;28.88;38.89;96614.72;4942236;28;20033;-40
2021/06/23 03:42:11;;;;;;;2.13;0.90;;;;;;;28.90;38.98;96618.09;4943792;28;20650;-41
2021/06/23 03:44:36;;;;;;;2.38;0.82;;;;;;;28.89;38.98;96630.47;4935735;28;20060;-36
2021/06/23 03:47:03;;;;;;;2.25;0.80;;;;;;;28.91;39.11;96635.66;4949616;28;20026;-41
2021/06/23 03:49:28;;;;;;;3.20;1.00;;;;;;;28.91;39.05;96631.19;4942663;28;20035;-39
2021/06/23 03:51:54;;;;;;;4.13;1.05;;;;;;;28.92;39.02;96630.25;4947796;28;20037;-40
2021/06/23 03:54:20;;;;;;;3.10;0.90;;;;;;;28.93;38.72;96634.59;4940386;28;20031;-35
2021/06/23 03:56:45;;;;;;;1.55;0.90;;;;;;;28.93;38.80;96639.00;4945415;28;20042;-42
2021/06/23 03:59:10;;;;;;;1.17;0.88;;;;;;;28.94;38.81;96643.31;4941302;28;20041;-42
2021/06/23 04:01:36;;;;;;;2.03;0.75;;;;;;;28.94;38.89;96644.19;4939307;28;20043;-38
2021/06/23 04:04:01;;;;;;;1.27;0.70;;;;;;;28.94;38.88;96651.25;4979227;28;20035;-39
2021/06/23 04:06:28;;;;;;;2.38;0.90;;;;;;;28.95;38.87;96645.84;4944859;28;20027;-36
2021/06/23 04:08:53;;;;;;;1.98;0.90;;;;;;;28.95;38.79;96653.78;4943937;28;20031;-36
2021/06/23 04:11:18;;;;;;;2.40;1.00;;;;;;;28.96;38.84;96649.34;4944248;28;20026;-41
2021/06/23 04:13:44;;;;;;;0.90;0.60;;;;;;;28.97;38.88;96650.19;4938582;28;20069;-42
2021/06/23 04:16:09;;;;;;;2.25;0.70;;;;;;;28.96;38.98;96649.34;4943930;28;20086;-42
2021/06/23 04:18:35;;;;;;;1.45;0.85;;;;;;;28.95;39.08;96653.78;4939425;28;20798;-37
2021/06/23 04:21:00;;;;;;;1.40;0.90;;;;;;;28.96;38.98;96665.19;4940283;28;20026;-34
2021/06/23 04:23:25;;;;;;;3.55;1.10;;;;;;;28.97;38.94;96660.72;4938342;28;20347;-43
2021/06/23 04:25:51;;;;;;;0.85;0.82;;;;;;;28.97;38.79;96660.72;4944376;28;20513;-39
2021/06/23 04:28:16;;;;;;;1.00;0.90;;;;;;;28.98;38.78;96654.53;4942634;28;20516;-35
2021/06/23 04:30:42;;;;;;;3.63;0.93;;;;;;;28.96;38.76;96646.72;4949627;28;20061;-40
2021/06/23 04:33:07;;;;;;;7.85;1.20;;;;;;;28.98;38.77;96646.63;4932839;28;20997;-40
2021/06/23 04:35:32;;;;;;;2.10;1.00;;;;;;;28.98;38.90;96652.72;4937592;28;20041;-41
2021/06/23 04:37:58;;;;;;;2.58;1.00;;;;;;;28.98;38.66;96651.88;4941830;28;20027;-33
2021/06/23 04:40:23;;;;;;;1.42;0.77;;;;;;;28.99;38.74;96658.84;4944453;28;20290;-33
2021/06/23 04:42:49;;;;;;;2.15;0.88;;;;;;;28.98;38.68;96651.88;4942386;28;20096;-35
2021/06/23 04:45:14;;;;;;;1.98;0.82;;;;;;;28.99;38.67;96654.41;4942318;28;20041;-44
2021/06/23 04:47:40;;;;;;;2.83;0.70;;;;;;;28.99;38.89;96658.84;4941465;28;20034;-38
2021/06/23 04:50:07;;;;;;;1.17;0.50;;;;;;;28.99;38.87;96661.50;4949388;28;20026;-34
2021/06/23 04:52:32;;;;;;;2.47;0.50;;;;;;;29.01;38.77;96667.50;4937640;28;22106;-37
2021/06/23 04:54:58;;;;;;;1.73;0.80;;;;;;;29.00;38.94;96664.03;4942581;28;20038;-41
2021/06/23 04:57:23;;;;;;;0.70;0.70;;;;;;;29.01;38.73;96664.84;4942357;28;20743;-40
2021/06/23 04:59:49;;;;;;;1.23;0.70;;;;;;;29.01;38.66;96663.06;4949887;28;20716;-35
2021/06/23 05:02:14;;;;;;;2.45;0.80;;;;;;;29.01;38.77;96662.22;4938239;28;21136;-43
2021/06/23 05:04:42;;;;;;;1.90;0.80;;;;;;;29.03;38.62;96665.59;4946749;28;20065;-38
2021/06/23 05:07:08;;;;;;;1.98;0.80;;;;;;;29.02;38.64;96659.47;4935998;28;20110;-39
2021/06/23 05:09:35;;;;;;;3.03;1.00;;;;;;;29.03;38.53;96670.88;4945548;28;20257;-35
2021/06/23 05:12:01;;;;;;;1.05;0.60;;;;;;;29.03;38.63;96673.53;4929897;28;20300;-42
2021/06/23 05:14:26;;;;;;;1.60;0.80;;;;;;;29.03;38.75;96673.53;4943979;28;20035;-39
2021/06/23 05:16:52;;;;;;;0.70;0.70;;;;;;;29.04;38.65;96672.56;4947170;28;20054;-37
2021/06/23 05:19:18;;;;;;;0.73;0.70;;;;;;;29.05;38.50;96674.25;4940996;28;20089;-41
2021/06/23 05:21:43;;;;;;;0.95;0.70;;;;;;;29.05;38.50;96668.97;4950865;28;20027;-42
2021/06/23 05:24:09;;;;;;;1.00;0.73;;;;;;;29.05;38.78;96675.09;4955975;28;20586;-42
2021/06/23 05:26:34;;;;;;;1.40;0.52;;;;;;;29.06;38.51;96681.22;4934269;28;20023;-41
2021/06/23 05:29:00;;;;;;;2.28;0.90;;;;;;;29.06;38.48;96682.06;4936850;28;20401;-38
2021/06/23 05:31:25;;;;;;;1.10;0.70;;;;;;;29.06;38.65;96678.59;4944133;28;20051;-42
2021/06/23 05:33:50;;;;;;;0.70;0.60;;;;;;;29.07;38.55;96685.56;4937164;28;20257;-36
2021/06/23 05:36:16;;;;;;;1.42;0.70;;;;;;;29.07;38.58;96685.56;4930940;28;20026;-33
2021/06/23 05:38:41;;;;;;;2.38;0.70;;;;;;;29.09;38.67;96691.56;4949078;28;20049;-41
2021/06/23 05:41:07;;;;;;;1.27;0.70;;;;;;;29.10;38.68;96687.13;4945374;28;21002;-39
2021/06/23 05:43:32;;;;;;;1.58;0.80;;;;;;;29.10;38.65;96687.13;4947110;28;20045;-42
2021/06/23 05:45:58;;;;;;;1.15;0.70;;;;;;;29.09;38.60;96686.28;4945304;28;20035;-40
2021/06/23 05:48:23;;;;;;;1.77;0.70;;;;;;;29.10;38.85;96685.31;4936842;28;20023;-45
2021/06/23 05:50:49;;;;;;;1.92;0.57;;;;;;;29.09;38.60;96686.28;4937687;28;20041;-42
2021/06/23 05:53:14;;;;;;;4.30;1.30;;;;;;;29.08;38.29;96690.72;4947827;28;20793;-39
2021/06/23 05:55:40;;;;;;;4.80;1.40;;;;;;;29.07;38.27;96696.94;4938321;28;20030;-40
2021/06/23 05:58:06;;;;;;;8.07;1.70;;;;;;;29.05;38.49;96693.56;4944271;28;20595;-42
2021/06/23 06:00:31;;;;;;;5.88;1.77;;;;;;;28.99;38.10;96706.34;4941257;28;20046;-33
2021/06/23 06:02:57;;;;;;;6.07;1.80;;;;;;;28.92;38.45;96701.44;4947352;28;20049;-41
2021/06/23 06:05:22;;;;;;;4.63;1.90;;;;;;;28.87;38.71;96708.81;4945618;28;20037;-35
2021/06/23 06:07:48;;;;;;;4.90;1.95;;;;;;;28.82;38.76;96705.63;4944035;28;20035;-35
2021/06/23 06:10:13;;;;;;;7.38;2.08;;;;;;;28.76;38.72;96712.16;4975825;28;20030;-42
2021/06/23 06:12:39;;;;;;;6.15;1.80;;;;;;;28.71;39.18;96716.06;4945979;28;20337;-40
2021/06/23 06:15:05;;;;;;;4.78;1.65;;;;;;;28.64;39.33;96716.47;4944960;28;20521;-43
2021/06/23 06:17:30;;;;;;;3.70;1.67;;;;;;;28.61;39.66;96714.06;4942447;28;20052;-40
2021/06/23 06:19:56;;;;;;;3.45;1.90;;;;;;;28.58;39.55;96716.88;4941579;28;20033;-43
2021/06/23 06:22:21;;;;;;;4.82;1.88;;;;;;;28.51;39.42;96712.94;4950522;28;20045;-38
2021/06/23 06:24:47;;;;;;;8.00;1.80;;;;;;;28.53;39.61;96718.97;4941599;28;20097;-41
2021/06/23 06:27:12;;;;;;;5.13;1.80;;;;;;;28.52;39.68;96725.19;4947999;28;20027;-36
2021/06/23 06:29:38;;;;;;;3.90;1.65;;;;;;;28.50;39.64;96724.44;4932856;28;20113;-43
2021/06/23 06:32:04;;;;;;;3.08;1.83;;;;;;;28.51;39.74;96723.50;4949124;28;20714;-41
2021/06/23 06:34:29;;;;;;;5.35;1.85;;;;;;;28.51;40.05;96728.75;4942353;28;20466;-39
2021/06/23 06:36:54;;;;;;;7.60;1.90;;;;;;;28.51;39.83;96723.50;4938734;28;20505;-38
2021/06/23 06:39:20;;;;;;;12.65;2.05;;;;;;;28.53;40.18;96721.63;4941636;28;20280;-41
2021/06/23 06:41:45;;;;;;;7.22;2.08;;;;;;;28.54;40.09;96723.31;4943249;28;20034;-42
2021/06/23 06:44:11;;;;;;;6.07;2.42;;;;;;;28.51;39.62;96718.22;4940117;28;20064;-38
2021/06/23 06:46:37;;;;;;;5.22;2.00;;;;;;;28.56;39.20;96729.31;4974660;28;20027;-43
2021/06/23 06:49:03;;;;;;;4.78;1.90;;;;;;;28.56;39.33;96729.31;4945207;28;20061;-41
2021/06/23 06:51:28;;;;;;;5.25;1.85;;;;;;;28.57;39.48;96728.38;4940546;28;20042;-33
2021/06/23 06:53:54;;;;;;;5.38;2.20;;;;;;;28.59;39.25;96736.16;4940653;28;20057;-42
2021/06/23 06:56:19;;;;;;;7.15;1.50;;;;;;;28.60;39.40;96733.44;4941708;28;20027;-45
2021/06/23 06:58:45;;;;;;;6.05;1.73;;;;;;;28.59;39.12;96731.75;4940843;28;20997;-41
2021/06/23 07:01:10;;;;;;;4.50;2.15;;;;;;;28.60;39.24;96722.06;4934767;28;20050;-33
2021/06/23 07:03:36;;;;;;;2.40;1.63;;;;;;;28.60;39.09;96728.16;4937916;28;20030;-43
2021/06/23 07:06:01;;;;;;;2.97;1.75;;;;;;;28.59;39.14;96731.75;4938645;28;20303;-40
2021/06/23 07:08:26;;;;;;;3.22;1.60;;;;;;;28.60;38.97;96728.16;4936885;28;20041;-35
2021/06/23 07:10:52;;;;;;;4.85;1.83;;;;;;;28.61;38.91;96724.59;4938780;28;20035;-35
2021/06/23 07:13:17;;;;;;;5.35;1.90;;;;;;;28.63;38.74;96730.59;4938391;28;20033;-41
2021/06/23 07:15:43;;;;;;;5.32;1.60;;;;;;;28.64;38.92;96734.09;4941378;28;20033;-36
2021/06/23 07:18:08;;;;;;;3.42;1.80;;;;;;;28.63;38.76;96722.69;4940955;28;20569;-35
2021/06/23 07:20:33;;;;;;;8.27;2.20;;;;;;;28.61;38.72;96735.16;4936870;28;20062;-42
2021/06/23 07:22:59;;;;;;;2.83;2.00;;;;;;;28.58;38.59;96732.69;4942279;28;20737;-40
2021/06/23 07:25:24;;;;;;;2.58;1.55;;;;;;;28.57;38.61;96738.94;4937900;28;20840;-36
2021/06/23 07:27:50;;;;;;;5.45;1.80;;;;;;;28.56;38.88;96743.34;4940221;28;20825;-42
2021/06/23 07:30:16;;;;;;;2.25;1.40;;;;;;;28.55;38.63;96736.38;4939216;28;20299;-41
2021/06/23 07:37:57;;;;;;;3.65;1.60;;;;;;;28.53;38.14;96742.72;4938849;28;20786;-33
2021/06/23 07:40:40;;;;;;;5.25;2.00;;;;;;;28.52;38.50;96746.25;4941624;28;20026;-37
2021/06/23 07:43:06;;;;;;;5.35;1.85;;;;;;;28.53;38.62;96750.63;4936654;28;20031;-36
2021/06/23 07:45:31;;;;;;;4.72;1.63;;;;;;;28.52;38.41;96746.25;4937037;28;20027;-37
2021/06/23 07:47:57;;;;;;;7.57;1.98;;;;;;;28.50;38.24;96748.16;4937271;28;20924;-35
2021/06/23 07:50:22;;;;;;;6.38;2.20;;;;;;;28.49;38.64;96747.31;4937254;28;20255;-33
2021/06/23 07:52:54;;;;;;;10.02;2.60;;;;;;;28.48;38.68;96745.63;4935264;28;20031;-42
2021/06/23 08:01:33;;;;;;;7.80;2.17;;;;;;;28.46;37.94;96747.53;4936443;28;20049;-35
2021/06/23 08:11:51;;;;;;;3.00;1.73;;;;;;;28.35;37.90;96748.22;4962667;28;21237;-40
2021/06/23 08:14:17;;;;;;;3.63;1.77;;;;;;;28.31;37.75;96746.72;4937012;28;20034;-37
2021/06/23 08:16:43;;;;;;;9.23;1.65;;;;;;;28.30;37.51;96750.31;4935972;28;20039;-35
2021/06/23 08:19:09;;;;;;;7.28;1.65;;;;;;;28.29;37.88;96740.69;4942378;28;20031;-40
2021/06/23 08:21:34;;;;;;;5.40;1.80;;;;;;;28.30;37.94;96737.97;4946865;28;20046;-36
2021/06/23 08:24:00;;;;;;;10.15;2.28;;;;;;;28.34;37.88;96735.97;4940736;28;20034;-40
2021/06/23 08:26:25;;;;;;;4.93;1.73;;;;;;;28.36;37.56;96734.09;4971489;28;20179;-38
2021/06/23 08:28:50;;;;;;;6.90;1.33;;;;;;;28.38;37.73;96724.28;4940930;28;20914;-39
2021/06/23 08:31:16;;;;;;;2.55;1.40;;;;;;;28.41;37.67;96737.28;4940345;28;20576;-42
2021/06/23 08:33:41;;;;;;;4.78;1.67;;;;;;;28.42;37.38;96731.06;4931033;28;20054;-41
2021/06/23 08:36:09;;;;;;;5.65;2.17;;;;;;;28.45;37.17;96729.19;4938452;28;20036;-36
2021/06/23 08:38:34;;;;;;;6.47;1.40;;;;;;;28.45;37.25;96726.53;4939853;28;20039;-41
2021/06/23 08:41:00;;;;;;;2.92;1.23;;;;;;;28.46;36.90;96717.69;4940631;28;20045;-33
2021/06/23 08:43:26;;;;;;;4.50;1.50;;;;;;;28.46;36.67;96725.59;4938757;28;20038;-39
2021/06/23 08:45:51;;;;;;;4.00;1.27;;;;;;;28.45;36.54;96718.63;4926710;28;20031;-40
2021/06/23 08:48:17;;;;;;;9.18;1.50;;;;;;;28.45;36.93;96722.09;4946599;28;20773;-35
2021/06/23 08:50:45;;;;;;;3.22;1.67;;;;;;;28.45;36.96;96731.81;4942855;28;20109;-43
2021/06/23 08:53:11;;;;;;;3.92;1.60;;;;;;;28.46;36.81;96725.59;4942794;28;20110;-42
2021/06/23 08:55:37;;;;;;;5.00;1.40;;;;;;;28.46;36.98;96725.59;4933418;28;20031;-32
2021/06/23 08:58:02;;;;;;;4.07;1.50;;;;;;;28.48;37.03;96723.69;4942987;28;20185;-38
2021/06/23 09:00:28;;;;;;;10.57;1.42;;;;;;;28.49;36.89;96720.13;4937837;28;20049;-40
2021/06/23 09:02:59;;;;;;;4.75;1.42;;;;;;;28.52;37.21;96719.91;4938738;28;20035;-43
2021/06/23 09:05:24;;;;;;;4.68;1.33;;;;;;;28.54;37.29;96720.66;4942453;28;20097;-41
2021/06/23 09:07:59;;;;;;;7.55;1.50;;;;;;;28.53;37.29;96705.81;4946219;28;20041;-34
2021/06/23 09:10:26;;;;;;;4.53;1.33;;;;;;;28.59;37.41;96715.94;4937502;28;20037;-40
2021/06/23 09:13:00;;;;;;;4.80;1.10;;;;;;;28.62;37.60;96718.38;4939165;28;20050;-42
2021/06/23 09:15:39;;;;;;;7.00;1.35;;;;;;;28.64;37.45;96711.19;4940512;28;20030;-32
2021/06/23 09:18:11;;;;;;;10.90;1.48;;;;;;;28.66;37.39;96704.03;4972232;28;20840;-38
2021/06/23 09:20:36;;;;;;;6.03;1.40;;;;;;;28.70;37.83;96707.31;4939628;28;20563;-35
2021/06/23 09:23:02;;;;;;;3.25;1.27;;;;;;;28.71;37.77;96708.16;4971839;28;20038;-36
2021/06/23 09:25:31;;;;;;;2.75;1.20;;;;;;;28.74;37.60;96713.22;4948437;28;20035;-42
2021/06/23 09:27:58;;;;;;;4.13;1.20;;;;;;;28.76;37.80;96712.16;4952813;28;20120;-42
2021/06/23 09:30:33;;;;;;;2.95;1.10;;;;;;;28.77;37.66;96713.03;4950588;28;20224;-41
2021/06/23 09:33:18;;;;;;;3.72;1.23;;;;;;;28.80;37.83;96707.53;4945827;28;20031;-38
2021/06/23 09:35:44;;;;;;;4.00;1.40;;;;;;;28.82;37.83;96716.19;4948634;28;20166;-38
2021/06/23 09:38:33;;;;;;;3.92;1.50;;;;;;;28.83;37.85;96705.53;4952110;28;20346;-44
2021/06/23 09:41:01;;;;;;;2.92;1.10;;;;;;;28.85;37.83;96709.84;4945295;28;20170;-37
2021/06/23 09:43:42;;;;;;;2.22;1.00;;;;;;;28.86;37.79;96709.75;4936914;28;20106;-39
2021/06/23 09:46:13;;;;;;;2.13;1.05;;;;;;;28.88;37.71;96713.16;4945792;28;20593;-40
2021/06/23 09:48:38;;;;;;;4.38;1.20;;;;;;;28.88;37.71;96705.25;4938734;28;20406;-40
2021/06/23 09:51:18;;;;;;;3.78;0.90;;;;;;;28.90;37.99;96703.38;4955891;28;20030;-37
2021/06/23 09:53:43;;;;;;;2.63;1.30;;;;;;;28.91;37.88;96705.03;4980674;28;20246;-38
2021/06/23 09:56:30;;;;;;;4.53;1.10;;;;;;;28.93;37.89;96705.81;4950904;28;20026;-40
2021/06/23 09:58:56;;;;;;;2.33;0.85;;;;;;;28.94;37.77;96704.00;4951483;28;20026;-42
2021/06/23 10:01:21;;;;;;;2.22;1.10;;;;;;;28.94;37.86;96704.84;4949888;28;20054;-39
2021/06/23 10:04:08;;;;;;;1.30;1.00;;;;;;;28.96;37.78;96710.03;4954272;28;20121;-38
2021/06/23 10:06:33;;;;;;;3.53;1.13;;;;;;;28.97;38.00;96703.78;4950778;28;20143;-42
2021/06/23 10:09:24;;;;;;;1.73;0.98;;;;;;;28.99;37.93;96701.06;4939475;28;20447;-39
2021/06/23 10:11:51;;;;;;;2.35;1.00;;;;;;;29.01;37.68;96709.69;4938251;28;20039;-37
2021/06/23 10:14:17;;;;;;;3.25;1.20;;;;;;;29.01;37.57;96699.16;4938633;28;20035;-41
2021/06/23 10:16:45;;;;;;;2.60;1.20;;;;;;;29.02;37.61;96698.22;4938153;28;20109;-43
2021/06/23 10:19:10;;;;;;;1.50;0.98;;;;;;;29.04;37.76;96698.94;4934891;28;20686;-43
2021/06/23 10:21:36;;;;;;;1.42;0.95;;;;;;;29.04;37.80;96688.38;4933975;28;20383;-40
2021/06/23 10:24:02;;;;;;;2.15;0.90;;;;;;;29.06;37.84;96689.97;4929065;28;20073;-36
2021/06/23 10:26:28;;;;;;;1.95;0.80;;;;;;;29.08;37.79;96684.59;4933578;28;20517;-40
2021/06/23 10:28:55;;;;;;;1.30;0.93;;;;;;;29.09;37.76;96691.56;4945558;28;20043;-37
2021/06/23 10:31:25;;;;;;;2.25;0.90;;;;;;;29.11;37.88;96692.31;4929658;28;20043;-41
2021/06/23 10:33:50;;;;;;;1.10;0.90;;;;;;;29.12;37.87;96685.22;4934148;28;20044;-39
2021/06/23 10:36:16;;;;;;;1.98;1.20;;;;;;;29.14;38.09;96688.63;4931786;28;20043;-39
2021/06/23 10:38:42;;;;;;;5.43;0.90;;;;;;;29.13;38.31;96687.75;4932778;28;20098;-38
2021/06/23 10:41:08;;;;;;;1.05;0.75;;;;;;;29.12;38.47;96683.44;4947601;28;20105;-39
2021/06/23 10:43:33;;;;;;;1.33;0.70;;;;;;;29.11;38.31;96684.41;4948604;28;20031;-40
2021/06/23 10:45:59;;;;;;;2.15;0.98;;;;;;;29.12;38.42;96679.94;4932754;28;22853;-39
2021/06/23 10:48:24;;;;;;;2.65;0.88;;;;;;;29.15;38.35;96680.59;4929549;28;20035;-38
2021/06/23 10:50:50;;;;;;;1.83;0.90;;;;;;;29.21;38.48;96690.72;4930217;28;20572;-35
2021/06/23 10:53:37;;;;;;;1.27;0.77;;;;;;;29.30;38.11;96683.13;4930621;28;20329;-37
2021/06/23 10:56:03;;;;;;;1.05;0.75;;;;;;;29.41;38.25;96691.13;4931997;28;20038;-40
2021/06/23 10:58:33;;;;;;;2.42;1.00;;;;;;;29.52;38.12;96676.38;4931631;28;20035;-36
2021/06/23 11:01:12;;;;;;;5.63;0.90;;;;;;;29.63;38.03;96679.06;4931117;28;20099;-40
2021/06/23 11:04:02;;;;;;;0.70;0.60;;;;;;;29.77;37.85;96682.53;4931557;28;20034;-34
2021/06/23 11:06:44;;;;;;;1.67;0.88;;;;;;;29.89;37.08;96679.00;4931863;28;20410;-41
2021/06/23 11:09:22;;;;;;;0.77;0.65;;;;;;;30.01;36.92;96685.19;4931855;28;20027;-42
2021/06/23 11:11:47;;;;;;;0.75;0.60;;;;;;;30.12;37.16;96684.47;4927912;28;20074;-33
2021/06/23 11:14:16;;;;;;;1.13;0.45;;;;;;;30.21;36.82;96683.78;4946740;28;20047;-40
2021/06/23 11:16:42;;;;;;;1.67;0.70;;;;;;;30.31;36.55;96691.03;4961733;28;22461;-37
2021/06/23 11:19:08;;;;;;;1.10;0.57;;;;;;;30.39;36.43;96686.03;4928642;28;20022;-35
2021/06/23 11:21:34;;;;;;;0.73;0.50;;;;;;;30.47;36.81;96686.31;4943310;28;20545;-36
2021/06/23 11:24:03;;;;;;;1.15;0.60;;;;;;;30.56;35.85;96691.88;4948485;28;20066;-32
2021/06/23 11:26:29;;;;;;;1.10;0.60;;;;;;;30.62;36.18;96678.16;4929948;28;20279;-34
2021/06/23 11:28:58;;;;;;;0.80;0.70;;;;;;;30.69;36.05;96673.25;4926809;28;20679;-42
2021/06/23 11:31:53;;;;;;;1.23;0.60;;;;;;;30.76;35.57;96678.03;4924904;28;20832;-37
2021/06/23 11:34:37;;;;;;;0.73;0.52;;;;;;;30.82;35.53;96674.03;4924607;28;20034;-38
2021/06/23 11:37:03;;;;;;;3.45;0.93;;;;;;;30.87;35.58;96668.41;4928075;28;20037;-34
2021/06/23 11:39:31;;;;;;;1.05;0.50;;;;;;;30.91;35.91;96656.66;4929122;28;20057;-39
2021/06/23 11:41:56;;;;;;;0.68;0.50;;;;;;;30.96;35.44;96657.13;4923531;28;20034;-34
2021/06/23 11:44:22;;;;;;;2.30;0.70;;;;;;;31.00;35.53;96658.56;4929451;28;20097;-40
2021/06/23 11:46:47;;;;;;;0.65;0.55;;;;;;;31.05;35.38;96657.38;4925859;28;20034;-41
2021/06/23 11:49:12;;;;;;;1.30;0.70;;;;;;;31.08;35.07;96663.28;4931335;28;20034;-33
2021/06/23 11:51:38;;;;;;;2.15;0.77;;;;;;;31.11;35.46;96665.69;4930503;28;20027;-37
2021/06/23 11:54:04;;;;;;;0.55;0.50;;;;;;;31.14;35.24;96668.09;4927658;28;20027;-34
2021/06/23 11:56:29;;;;;;;1.13;0.60;;;;;;;31.15;35.35;96667.13;4943908;28;20126;-38
2021/06/23 11:58:55;;;;;;;0.63;0.50;;;;;;;31.16;34.84;96658.22;4926392;28;20038;-33
2021/06/23 12:01:20;;;;;;;0.73;0.63;;;;;;;31.16;35.02;96657.38;4930340;28;20620;-41
2021/06/23 12:03:45;;;;;;;11.20;3.80;;;;;;;31.14;35.75;96664.59;4938822;28;20457;-42
2021/06/23 12:06:11;;;;;;;5.63;3.58;;;;;;;31.12;35.40;96672.66;4924833;28;20089;-38
2021/06/23 12:08:36;;;;;;;10.05;6.05;;;;;;;31.10;35.39;96673.75;4926152;28;20537;-39
2021/06/23 12:11:03;;;;;;;15.90;9.20;;;;;;;31.06;35.59;96673.16;4929003;28;20576;-37
2021/06/23 12:13:29;;;;;;;19.80;11.43;;;;;;;31.01;35.09;96675.31;4927453;28;20035;-34
2021/06/23 12:15:54;;;;;;;22.30;13.70;;;;;;;30.97;35.65;96674.69;4947543;28;20035;-38
2021/06/23 12:18:20;;;;;;;28.65;16.58;;;;;;;30.93;35.44;96675.88;4934408;28;20026;-38
2021/06/23 12:20:45;;;;;;;26.17;16.40;;;;;;;30.88;35.59;96676.25;4935320;28;20023;-38
2021/06/23 12:23:11;;;;;;;26.17;17.55;;;;;;;30.85;36.22;96680.91;4931422;28;20030;-39
2021/06/23 12:25:41;;;;;;;31.05;18.05;;;;;;;30.81;36.28;96684.78;4931946;28;20023;-33
2021/06/23 12:28:07;;;;;;;31.23;18.90;;;;;;;30.76;36.28;96691.25;4924824;28;20057;-36
2021/06/23 12:30:33;;;;;;;30.80;18.25;;;;;;;30.72;36.20;96679.22;4923712;28;20117;-34
2021/06/23 12:32:59;;;;;;;38.33;17.55;;;;;;;30.68;36.25;96685.66;4924727;28;20597;-31
2021/06/23 12:35:25;;;;;;;24.83;16.20;;;;;;;30.64;36.76;96692.13;4928736;28;20085;-40
2021/06/23 12:37:51;;;;;;;20.95;13.18;;;;;;;30.61;36.66;96687.06;4925389;28;20035;-38
2021/06/23 12:40:16;;;;;;;29.40;15.02;;;;;;;30.58;36.69;96692.56;4927567;28;20026;-41
2021/06/23 12:42:42;;;;;;;25.45;15.25;;;;;;;30.55;36.47;96684.91;4932178;28;20027;-40